sensor_id;sensor_type;location;lat;lon;timestamp;temperature;humidity
12819;DHT22;6474;53.474;9.894;2023-02-28T00:01:15;3.10;90.40
12819;DHT22;6474;53.474;9.894;2023-02-28T00:03:43;3.10;90.40
12819;DHT22;6474;53.474;9.894;2023-02-28T00:06:13;3.10;90.40
12819;DHT22;6474;53.474;9.894;2023-02-28T00:08:40;3.10;90.40
12819;DHT22;6474;53.474;9.894;2023-02-28T00:11:10;3.10;90.40
12819;DHT22;6474;53.474;9.894;2023-02-28T00:13:40;3.10;90.40
12819;DHT22;6474;53.474;9.894;2023-02-28T00:16:10;3.10;90.40
12819;DHT22;6474;53.474;9.894;2023-02-28T00:18:39;3.10;90.40
12819;DHT22;6474;53.474;9.894;2023-02-28T00:21:08;3.10;90.40
12819;DHT22;6474;53.474;9.894;2023-02-28T00:23:37;3.10;90.40
12819;DHT22;6474;53.474;9.894;2023-02-28T00:26:05;3.10;90.40
12819;DHT22;6474;53.474;9.894;2023-02-28T00:28:33;3.00;90.40
12819;DHT22;6474;53.474;9.894;2023-02-28T00:31:02;3.10;90.40
12819;DHT22;6474;53.474;9.894;2023-02-28T00:33:31;3.00;90.40
12819;DHT22;6474;53.474;9.894;2023-02-28T00:36:04;3.00;90.40
12819;DHT22;6474;53.474;9.894;2023-02-28T00:38:32;3.00;90.40
12819;DHT22;6474;53.474;9.894;2023-02-28T00:41:01;3.00;90.40
12819;DHT22;6474;53.474;9.894;2023-02-28T00:43:32;3.00;90.70
12819;DHT22;6474;53.474;9.894;2023-02-28T00:46:00;3.00;90.40
12819;DHT22;6474;53.474;9.894;2023-02-28T00:48:29;2.90;90.30
12819;DHT22;6474;53.474;9.894;2023-02-28T00:50:57;2.90;90.30
12819;DHT22;6474;53.474;9.894;2023-02-28T00:53:25;2.90;90.30
12819;DHT22;6474;53.474;9.894;2023-02-28T00:55:53;2.90;90.30
12819;DHT22;6474;53.474;9.894;2023-02-28T00:58:22;2.90;90.30
12819;DHT22;6474;53.474;9.894;2023-02-28T01:00:51;2.80;90.20
12819;DHT22;6474;53.474;9.894;2023-02-28T01:03:21;2.80;90.20
12819;DHT22;6474;53.474;9.894;2023-02-28T01:05:49;2.70;90.10
12819;DHT22;6474;53.474;9.894;2023-02-28T01:08:17;2.70;90.10
12819;DHT22;6474;53.474;9.894;2023-02-28T01:10:45;2.60;90.10
12819;DHT22;6474;53.474;9.894;2023-02-28T01:13:14;2.50;90.10
12819;DHT22;6474;53.474;9.894;2023-02-28T01:15:50;2.50;90.10
12819;DHT22;6474;53.474;9.894;2023-02-28T01:18:18;2.50;90.20
12819;DHT22;6474;53.474;9.894;2023-02-28T01:20:47;2.40;90.20
12819;DHT22;6474;53.474;9.894;2023-02-28T01:23:15;2.40;90.30
12819;DHT22;6474;53.474;9.894;2023-02-28T01:25:43;2.40;90.30
12819;DHT22;6474;53.474;9.894;2023-02-28T01:28:11;2.40;90.30
12819;DHT22;6474;53.474;9.894;2023-02-28T01:30:39;2.40;90.30
12819;DHT22;6474;53.474;9.894;2023-02-28T01:33:08;2.40;90.30
12819;DHT22;6474;53.474;9.894;2023-02-28T01:35:36;2.50;90.40
12819;DHT22;6474;53.474;9.894;2023-02-28T01:38:04;2.40;90.30
12819;DHT22;6474;53.474;9.894;2023-02-28T01:40:47;2.50;90.40
12819;DHT22;6474;53.474;9.894;2023-02-28T01:43:20;2.50;90.30
12819;DHT22;6474;53.474;9.894;2023-02-28T01:45:49;2.50;90.70
12819;DHT22;6474;53.474;9.894;2023-02-28T01:48:19;2.50;90.40
12819;DHT22;6474;53.474;9.894;2023-02-28T01:50:49;2.50;90.40
12819;DHT22;6474;53.474;9.894;2023-02-28T01:53:21;2.50;90.40
12819;DHT22;6474;53.474;9.894;2023-02-28T01:55:52;2.50;90.40
12819;DHT22;6474;53.474;9.894;2023-02-28T01:58:21;2.50;90.40
12819;DHT22;6474;53.474;9.894;2023-02-28T02:00:49;2.50;90.30
12819;DHT22;6474;53.474;9.894;2023-02-28T02:03:19;2.50;90.20
12819;DHT22;6474;53.474;9.894;2023-02-28T02:05:48;2.40;90.20
12819;DHT22;6474;53.474;9.894;2023-02-28T02:08:19;2.40;90.20
12819;DHT22;6474;53.474;9.894;2023-02-28T02:10:49;2.40;90.20
12819;DHT22;6474;53.474;9.894;2023-02-28T02:13:36;2.30;90.10
12819;DHT22;6474;53.474;9.894;2023-02-28T02:16:13;2.30;90.10
12819;DHT22;6474;53.474;9.894;2023-02-28T02:18:48;2.20;90.00
12819;DHT22;6474;53.474;9.894;2023-02-28T02:21:40;2.20;90.00
12819;DHT22;6474;53.474;9.894;2023-02-28T02:27:24;1.90;90.20
12819;DHT22;6474;53.474;9.894;2023-02-28T02:30:20;1.80;89.80
12819;DHT22;6474;53.474;9.894;2023-02-28T02:33:26;1.70;90.00
12819;DHT22;6474;53.474;9.894;2023-02-28T02:36:00;1.60;89.90
12819;DHT22;6474;53.474;9.894;2023-02-28T02:38:33;1.50;89.90
12819;DHT22;6474;53.474;9.894;2023-02-28T02:41:09;1.50;89.70
12819;DHT22;6474;53.474;9.894;2023-02-28T02:43:44;1.40;89.70
12819;DHT22;6474;53.474;9.894;2023-02-28T02:46:17;1.20;89.60
12819;DHT22;6474;53.474;9.894;2023-02-28T02:48:48;1.20;89.60
12819;DHT22;6474;53.474;9.894;2023-02-28T02:51:22;1.10;89.60
12819;DHT22;6474;53.474;9.894;2023-02-28T02:53:53;1.00;89.70
12819;DHT22;6474;53.474;9.894;2023-02-28T02:56:25;1.00;89.80
12819;DHT22;6474;53.474;9.894;2023-02-28T02:58:59;0.90;89.70
12819;DHT22;6474;53.474;9.894;2023-02-28T03:01:29;0.80;89.70
12819;DHT22;6474;53.474;9.894;2023-02-28T03:04:01;0.80;89.70
12819;DHT22;6474;53.474;9.894;2023-02-28T03:06:31;0.70;89.60
12819;DHT22;6474;53.474;9.894;2023-02-28T03:09:00;0.70;89.60
12819;DHT22;6474;53.474;9.894;2023-02-28T03:11:29;0.60;89.50
12819;DHT22;6474;53.474;9.894;2023-02-28T03:14:20;0.60;89.50
12819;DHT22;6474;53.474;9.894;2023-02-28T03:17:03;0.50;89.50
12819;DHT22;6474;53.474;9.894;2023-02-28T03:19:44;0.40;89.50
12819;DHT22;6474;53.474;9.894;2023-02-28T03:22:28;0.40;89.60
12819;DHT22;6474;53.474;9.894;2023-02-28T03:25:04;0.40;89.60
12819;DHT22;6474;53.474;9.894;2023-02-28T03:27:38;0.30;89.60
12819;DHT22;6474;53.474;9.894;2023-02-28T03:30:14;0.20;89.50
12819;DHT22;6474;53.474;9.894;2023-02-28T03:32:46;0.20;89.70
12819;DHT22;6474;53.474;9.894;2023-02-28T03:35:20;0.10;89.70
12819;DHT22;6474;53.474;9.894;2023-02-28T03:37:55;0.10;89.70
12819;DHT22;6474;53.474;9.894;2023-02-28T03:40:27;0.10;89.60
12819;DHT22;6474;53.474;9.894;2023-02-28T03:43:01;0.10;89.60
12819;DHT22;6474;53.474;9.894;2023-02-28T03:45:32;0.00;89.60
12819;DHT22;6474;53.474;9.894;2023-02-28T03:48:06;0.00;89.60
12819;DHT22;6474;53.474;9.894;2023-02-28T03:50:39;0.00;89.60
12819;DHT22;6474;53.474;9.894;2023-02-28T03:53:12;0.00;89.60
12819;DHT22;6474;53.474;9.894;2023-02-28T03:55:45;-0.10;90.00
12819;DHT22;6474;53.474;9.894;2023-02-28T03:58:17;-0.10;89.50
12819;DHT22;6474;53.474;9.894;2023-02-28T04:00:52;-0.10;89.40
12819;DHT22;6474;53.474;9.894;2023-02-28T04:03:23;-0.10;89.30
12819;DHT22;6474;53.474;9.894;2023-02-28T04:05:52;-0.20;89.20
12819;DHT22;6474;53.474;9.894;2023-02-28T04:08:22;-0.20;89.30
12819;DHT22;6474;53.474;9.894;2023-02-28T04:11:04;-0.20;89.40
12819;DHT22;6474;53.474;9.894;2023-02-28T04:13:34;-0.20;89.40
12819;DHT22;6474;53.474;9.894;2023-02-28T04:16:02;-0.30;89.30
12819;DHT22;6474;53.474;9.894;2023-02-28T04:18:50;-0.30;89.20
12819;DHT22;6474;53.474;9.894;2023-02-28T04:21:18;-0.30;89.20
12819;DHT22;6474;53.474;9.894;2023-02-28T04:23:50;-0.30;89.30
12819;DHT22;6474;53.474;9.894;2023-02-28T04:26:18;-0.40;89.20
12819;DHT22;6474;53.474;9.894;2023-02-28T04:28:45;-0.40;89.20
12819;DHT22;6474;53.474;9.894;2023-02-28T04:31:14;-0.40;89.20
12819;DHT22;6474;53.474;9.894;2023-02-28T04:33:42;-0.40;89.20
12819;DHT22;6474;53.474;9.894;2023-02-28T04:36:10;-0.40;89.10
12819;DHT22;6474;53.474;9.894;2023-02-28T04:38:38;-0.40;89.10
12819;DHT22;6474;53.474;9.894;2023-02-28T04:41:08;-0.50;89.00
12819;DHT22;6474;53.474;9.894;2023-02-28T04:43:36;-0.50;89.00
12819;DHT22;6474;53.474;9.894;2023-02-28T04:46:04;-0.60;89.10
12819;DHT22;6474;53.474;9.894;2023-02-28T04:48:35;-0.60;89.20
12819;DHT22;6474;53.474;9.894;2023-02-28T04:51:04;-0.60;89.20
12819;DHT22;6474;53.474;9.894;2023-02-28T04:53:32;-0.60;89.10
12819;DHT22;6474;53.474;9.894;2023-02-28T04:56:01;-0.60;89.10
12819;DHT22;6474;53.474;9.894;2023-02-28T04:58:31;-0.60;89.10
12819;DHT22;6474;53.474;9.894;2023-02-28T05:01:02;-0.60;89.10
12819;DHT22;6474;53.474;9.894;2023-02-28T05:03:31;-0.60;89.00
12819;DHT22;6474;53.474;9.894;2023-02-28T05:05:59;-0.70;88.90
12819;DHT22;6474;53.474;9.894;2023-02-28T05:08:27;-0.70;88.80
12819;DHT22;6474;53.474;9.894;2023-02-28T05:10:56;-0.70;88.90
12819;DHT22;6474;53.474;9.894;2023-02-28T05:13:25;-0.70;89.00
12819;DHT22;6474;53.474;9.894;2023-02-28T05:15:54;-0.70;89.00
12819;DHT22;6474;53.474;9.894;2023-02-28T05:18:22;-0.70;89.00
12819;DHT22;6474;53.474;9.894;2023-02-28T05:20:50;-0.80;88.90
12819;DHT22;6474;53.474;9.894;2023-02-28T05:23:19;-0.80;88.80
12819;DHT22;6474;53.474;9.894;2023-02-28T05:25:49;-0.80;88.80
12819;DHT22;6474;53.474;9.894;2023-02-28T05:28:18;-0.80;88.80
12819;DHT22;6474;53.474;9.894;2023-02-28T05:30:46;-0.80;88.80
12819;DHT22;6474;53.474;9.894;2023-02-28T05:33:16;-0.90;88.70
12819;DHT22;6474;53.474;9.894;2023-02-28T05:35:44;-0.90;88.70
12819;DHT22;6474;53.474;9.894;2023-02-28T05:38:12;-0.90;88.90
12819;DHT22;6474;53.474;9.894;2023-02-28T05:40:39;-1.00;88.90
12819;DHT22;6474;53.474;9.894;2023-02-28T05:43:10;-1.00;88.90
12819;DHT22;6474;53.474;9.894;2023-02-28T05:45:39;-1.00;88.90
12819;DHT22;6474;53.474;9.894;2023-02-28T05:48:08;-1.00;88.90
12819;DHT22;6474;53.474;9.894;2023-02-28T05:50:37;-1.10;88.90
12819;DHT22;6474;53.474;9.894;2023-02-28T05:53:05;-1.10;88.90
12819;DHT22;6474;53.474;9.894;2023-02-28T05:55:33;-1.10;88.90
12819;DHT22;6474;53.474;9.894;2023-02-28T05:58:02;-1.10;88.90
12819;DHT22;6474;53.474;9.894;2023-02-28T06:00:30;-1.10;88.90
12819;DHT22;6474;53.474;9.894;2023-02-28T06:02:58;-1.10;88.90
12819;DHT22;6474;53.474;9.894;2023-02-28T06:05:28;-1.10;88.90
12819;DHT22;6474;53.474;9.894;2023-02-28T06:07:58;-1.10;88.90
12819;DHT22;6474;53.474;9.894;2023-02-28T06:10:26;-1.10;88.90
12819;DHT22;6474;53.474;9.894;2023-02-28T06:12:53;-1.10;88.90
12819;DHT22;6474;53.474;9.894;2023-02-28T06:15:21;-1.10;88.90
12819;DHT22;6474;53.474;9.894;2023-02-28T06:17:49;-1.20;88.80
12819;DHT22;6474;53.474;9.894;2023-02-28T06:20:19;-1.20;88.80
12819;DHT22;6474;53.474;9.894;2023-02-28T06:22:47;-1.10;88.90
12819;DHT22;6474;53.474;9.894;2023-02-28T06:25:17;-1.20;88.80
12819;DHT22;6474;53.474;9.894;2023-02-28T06:27:45;-1.20;88.80
12819;DHT22;6474;53.474;9.894;2023-02-28T06:30:14;-1.20;88.80
12819;DHT22;6474;53.474;9.894;2023-02-28T06:32:42;-1.20;88.80
12819;DHT22;6474;53.474;9.894;2023-02-28T06:35:09;-1.20;88.80
12819;DHT22;6474;53.474;9.894;2023-02-28T06:37:37;-1.10;88.90
12819;DHT22;6474;53.474;9.894;2023-02-28T06:40:08;-1.10;88.90
12819;DHT22;6474;53.474;9.894;2023-02-28T06:42:38;-1.10;88.90
12819;DHT22;6474;53.474;9.894;2023-02-28T06:45:07;-1.10;88.90
12819;DHT22;6474;53.474;9.894;2023-02-28T06:47:36;-1.10;88.90
12819;DHT22;6474;53.474;9.894;2023-02-28T06:50:06;-1.10;89.60
12819;DHT22;6474;53.474;9.894;2023-02-28T06:52:34;-1.10;89.00
12819;DHT22;6474;53.474;9.894;2023-02-28T06:55:05;-1.00;89.10
12819;DHT22;6474;53.474;9.894;2023-02-28T06:57:35;-1.00;89.00
12819;DHT22;6474;53.474;9.894;2023-02-28T07:00:06;-1.00;89.00
12819;DHT22;6474;53.474;9.894;2023-02-28T07:02:35;-0.90;89.20
12819;DHT22;6474;53.474;9.894;2023-02-28T07:05:05;-1.00;89.00
12819;DHT22;6474;53.474;9.894;2023-02-28T07:07:33;-0.90;89.20
12819;DHT22;6474;53.474;9.894;2023-02-28T07:10:03;-0.90;89.10
12819;DHT22;6474;53.474;9.894;2023-02-28T07:12:31;-0.80;89.20
12819;DHT22;6474;53.474;9.894;2023-02-28T07:14:59;-0.80;89.20
12819;DHT22;6474;53.474;9.894;2023-02-28T07:17:28;-0.70;89.30
12819;DHT22;6474;53.474;9.894;2023-02-28T07:19:56;-0.70;89.30
12819;DHT22;6474;53.474;9.894;2023-02-28T07:22:24;-0.70;89.30
12819;DHT22;6474;53.474;9.894;2023-02-28T07:24:52;-0.60;89.40
12819;DHT22;6474;53.474;9.894;2023-02-28T07:27:20;-0.60;89.30
12819;DHT22;6474;53.474;9.894;2023-02-28T07:29:52;-0.50;89.50
12819;DHT22;6474;53.474;9.894;2023-02-28T07:32:21;-0.50;89.50
12819;DHT22;6474;53.474;9.894;2023-02-28T07:34:51;-0.50;89.50
12819;DHT22;6474;53.474;9.894;2023-02-28T07:37:19;-0.40;89.60
12819;DHT22;6474;53.474;9.894;2023-02-28T07:39:47;-0.40;89.60
12819;DHT22;6474;53.474;9.894;2023-02-28T07:42:14;-0.30;89.70
12819;DHT22;6474;53.474;9.894;2023-02-28T07:44:42;-0.20;89.70
12819;DHT22;6474;53.474;9.894;2023-02-28T07:47:10;-0.20;89.60
12819;DHT22;6474;53.474;9.894;2023-02-28T07:49:38;-0.10;89.70
12819;DHT22;6474;53.474;9.894;2023-02-28T07:52:08;0.00;89.70
12819;DHT22;6474;53.474;9.894;2023-02-28T07:54:37;0.00;89.70
12819;DHT22;6474;53.474;9.894;2023-02-28T07:57:05;0.10;89.70
12819;DHT22;6474;53.474;9.894;2023-02-28T07:59:33;0.10;89.70
12819;DHT22;6474;53.474;9.894;2023-02-28T08:02:01;0.20;89.70
12819;DHT22;6474;53.474;9.894;2023-02-28T08:04:31;0.30;89.80
12819;DHT22;6474;53.474;9.894;2023-02-28T08:07:00;0.30;89.70
12819;DHT22;6474;53.474;9.894;2023-02-28T08:09:29;0.40;89.80
12819;DHT22;6474;53.474;9.894;2023-02-28T08:11:57;0.50;89.90
12819;DHT22;6474;53.474;9.894;2023-02-28T08:14:25;0.60;89.90
12819;DHT22;6474;53.474;9.894;2023-02-28T08:16:53;0.60;89.90
12819;DHT22;6474;53.474;9.894;2023-02-28T08:19:21;0.70;89.90
12819;DHT22;6474;53.474;9.894;2023-02-28T08:21:49;0.80;90.00
12819;DHT22;6474;53.474;9.894;2023-02-28T08:24:17;0.90;90.00
12819;DHT22;6474;53.474;9.894;2023-02-28T08:26:46;1.00;90.00
12819;DHT22;6474;53.474;9.894;2023-02-28T08:29:14;1.10;90.00
12819;DHT22;6474;53.474;9.894;2023-02-28T08:31:42;1.10;90.00
12819;DHT22;6474;53.474;9.894;2023-02-28T08:34:13;1.20;90.00
12819;DHT22;6474;53.474;9.894;2023-02-28T08:36:41;1.30;90.10
12819;DHT22;6474;53.474;9.894;2023-02-28T08:39:11;1.40;90.10
12819;DHT22;6474;53.474;9.894;2023-02-28T08:41:39;1.50;90.10
12819;DHT22;6474;53.474;9.894;2023-02-28T08:44:09;1.50;90.10
12819;DHT22;6474;53.474;9.894;2023-02-28T08:46:37;1.60;90.10
12819;DHT22;6474;53.474;9.894;2023-02-28T08:49:05;1.70;90.10
12819;DHT22;6474;53.474;9.894;2023-02-28T08:51:34;1.80;90.20
12819;DHT22;6474;53.474;9.894;2023-02-28T08:54:02;1.80;90.20
12819;DHT22;6474;53.474;9.894;2023-02-28T08:56:30;1.90;90.20
12819;DHT22;6474;53.474;9.894;2023-02-28T08:58:57;2.00;90.20
12819;DHT22;6474;53.474;9.894;2023-02-28T09:01:28;2.10;90.30
12819;DHT22;6474;53.474;9.894;2023-02-28T09:03:57;2.20;90.30
12819;DHT22;6474;53.474;9.894;2023-02-28T09:06:26;2.20;90.30
12819;DHT22;6474;53.474;9.894;2023-02-28T09:08:56;2.30;90.30
12819;DHT22;6474;53.474;9.894;2023-02-28T09:11:26;2.40;90.40
12819;DHT22;6474;53.474;9.894;2023-02-28T09:13:54;2.50;90.40
12819;DHT22;6474;53.474;9.894;2023-02-28T09:16:23;2.60;90.50
12819;DHT22;6474;53.474;9.894;2023-02-28T09:18:52;2.60;90.40
12819;DHT22;6474;53.474;9.894;2023-02-28T09:21:20;2.70;90.40
12819;DHT22;6474;53.474;9.894;2023-02-28T09:23:49;2.80;90.50
12819;DHT22;6474;53.474;9.894;2023-02-28T09:26:19;2.90;90.60
12819;DHT22;6474;53.474;9.894;2023-02-28T09:28:50;3.00;90.60
12819;DHT22;6474;53.474;9.894;2023-02-28T09:31:20;3.00;90.60
12819;DHT22;6474;53.474;9.894;2023-02-28T09:33:49;3.10;90.60
12819;DHT22;6474;53.474;9.894;2023-02-28T09:36:19;3.10;90.60
12819;DHT22;6474;53.474;9.894;2023-02-28T09:38:50;3.20;90.70
12819;DHT22;6474;53.474;9.894;2023-02-28T09:41:21;3.30;90.70
12819;DHT22;6474;53.474;9.894;2023-02-28T09:43:53;3.30;90.70
12819;DHT22;6474;53.474;9.894;2023-02-28T09:46:30;3.40;90.80
12819;DHT22;6474;53.474;9.894;2023-02-28T09:49:02;3.50;90.80
12819;DHT22;6474;53.474;9.894;2023-02-28T09:51:43;3.50;90.80
12819;DHT22;6474;53.474;9.894;2023-02-28T09:54:18;3.60;90.80
12819;DHT22;6474;53.474;9.894;2023-02-28T09:56:49;3.60;90.80
12819;DHT22;6474;53.474;9.894;2023-02-28T09:59:31;3.70;90.90
12819;DHT22;6474;53.474;9.894;2023-02-28T10:02:04;3.80;91.00
12819;DHT22;6474;53.474;9.894;2023-02-28T10:04:41;3.80;90.90
12819;DHT22;6474;53.474;9.894;2023-02-28T10:07:21;3.90;90.80
12819;DHT22;6474;53.474;9.894;2023-02-28T10:09:53;3.90;90.80
12819;DHT22;6474;53.474;9.894;2023-02-28T10:12:23;4.00;90.90
12819;DHT22;6474;53.474;9.894;2023-02-28T10:14:54;4.00;90.90
12819;DHT22;6474;53.474;9.894;2023-02-28T10:17:25;4.10;90.90
12819;DHT22;6474;53.474;9.894;2023-02-28T10:20:00;4.20;90.90
12819;DHT22;6474;53.474;9.894;2023-02-28T10:22:41;4.20;91.00
12819;DHT22;6474;53.474;9.894;2023-02-28T10:25:19;4.30;91.00
12819;DHT22;6474;53.474;9.894;2023-02-28T10:27:48;4.30;90.90
12819;DHT22;6474;53.474;9.894;2023-02-28T10:30:17;4.30;91.00
12819;DHT22;6474;53.474;9.894;2023-02-28T10:32:49;4.40;91.00
12819;DHT22;6474;53.474;9.894;2023-02-28T10:35:22;4.40;91.00
12819;DHT22;6474;53.474;9.894;2023-02-28T10:37:54;4.50;91.00
12819;DHT22;6474;53.474;9.894;2023-02-28T10:40:31;4.50;91.00
12819;DHT22;6474;53.474;9.894;2023-02-28T10:43:01;4.50;91.00
12819;DHT22;6474;53.474;9.894;2023-02-28T10:45:30;4.60;91.00
12819;DHT22;6474;53.474;9.894;2023-02-28T10:48:05;4.70;91.00
12819;DHT22;6474;53.474;9.894;2023-02-28T10:50:39;4.70;91.00
12819;DHT22;6474;53.474;9.894;2023-02-28T10:53:28;4.80;91.00
12819;DHT22;6474;53.474;9.894;2023-02-28T10:56:06;4.80;91.00
12819;DHT22;6474;53.474;9.894;2023-02-28T10:58:51;4.90;91.00
12819;DHT22;6474;53.474;9.894;2023-02-28T11:01:20;4.90;90.90
12819;DHT22;6474;53.474;9.894;2023-02-28T11:03:49;5.00;90.90
12819;DHT22;6474;53.474;9.894;2023-02-28T11:06:19;5.00;90.90
12819;DHT22;6474;53.474;9.894;2023-02-28T11:08:53;5.10;90.90
12819;DHT22;6474;53.474;9.894;2023-02-28T11:11:23;5.10;90.90
12819;DHT22;6474;53.474;9.894;2023-02-28T11:13:57;5.10;90.90
12819;DHT22;6474;53.474;9.894;2023-02-28T11:16:33;5.20;90.90
12819;DHT22;6474;53.474;9.894;2023-02-28T11:19:03;5.20;90.90
12819;DHT22;6474;53.474;9.894;2023-02-28T11:21:33;5.30;90.90
12819;DHT22;6474;53.474;9.894;2023-02-28T11:24:14;5.40;90.90
12819;DHT22;6474;53.474;9.894;2023-02-28T11:26:46;5.40;90.90
12819;DHT22;6474;53.474;9.894;2023-02-28T11:29:19;5.50;90.90
12819;DHT22;6474;53.474;9.894;2023-02-28T11:32:09;5.60;90.90
12819;DHT22;6474;53.474;9.894;2023-02-28T11:34:40;5.60;90.80
12819;DHT22;6474;53.474;9.894;2023-02-28T11:37:13;5.60;90.70
12819;DHT22;6474;53.474;9.894;2023-02-28T11:39:43;5.70;90.80
12819;DHT22;6474;53.474;9.894;2023-02-28T11:42:29;5.70;90.80
12819;DHT22;6474;53.474;9.894;2023-02-28T11:45:12;5.70;90.80
12819;DHT22;6474;53.474;9.894;2023-02-28T11:47:48;5.80;90.80
12819;DHT22;6474;53.474;9.894;2023-02-28T11:50:31;5.90;90.80
12819;DHT22;6474;53.474;9.894;2023-02-28T11:53:13;5.90;90.80
12819;DHT22;6474;53.474;9.894;2023-02-28T11:55:45;5.90;90.80
12819;DHT22;6474;53.474;9.894;2023-02-28T11:58:29;6.00;90.80
12819;DHT22;6474;53.474;9.894;2023-02-28T12:01:19;6.00;90.80
12819;DHT22;6474;53.474;9.894;2023-02-28T12:03:59;6.00;90.80
12819;DHT22;6474;53.474;9.894;2023-02-28T12:06:36;6.00;90.80
12819;DHT22;6474;53.474;9.894;2023-02-28T12:09:17;6.10;90.80
12819;DHT22;6474;53.474;9.894;2023-02-28T12:11:52;6.10;90.80
12819;DHT22;6474;53.474;9.894;2023-02-28T12:14:49;6.10;90.80
12819;DHT22;6474;53.474;9.894;2023-02-28T12:17:31;6.10;90.80
12819;DHT22;6474;53.474;9.894;2023-02-28T12:20:11;6.10;90.80
12819;DHT22;6474;53.474;9.894;2023-02-28T12:22:48;6.10;90.90
12819;DHT22;6474;53.474;9.894;2023-02-28T12:25:21;6.10;90.80
12819;DHT22;6474;53.474;9.894;2023-02-28T12:27:53;6.10;90.90
12819;DHT22;6474;53.474;9.894;2023-02-28T12:30:23;6.10;90.90
12819;DHT22;6474;53.474;9.894;2023-02-28T12:32:55;6.20;90.90
12819;DHT22;6474;53.474;9.894;2023-02-28T12:35:27;6.20;91.00
12819;DHT22;6474;53.474;9.894;2023-02-28T12:38:03;6.30;90.90
12819;DHT22;6474;53.474;9.894;2023-02-28T12:40:42;6.30;90.90
12819;DHT22;6474;53.474;9.894;2023-02-28T12:43:13;6.30;90.80
12819;DHT22;6474;53.474;9.894;2023-02-28T12:45:45;6.40;90.80
12819;DHT22;6474;53.474;9.894;2023-02-28T12:48:20;6.40;90.80
12819;DHT22;6474;53.474;9.894;2023-02-28T12:50:49;6.40;90.80
12819;DHT22;6474;53.474;9.894;2023-02-28T12:53:23;6.40;90.90
12819;DHT22;6474;53.474;9.894;2023-02-28T12:55:59;6.40;90.90
12819;DHT22;6474;53.474;9.894;2023-02-28T12:58:35;6.40;90.90
12819;DHT22;6474;53.474;9.894;2023-02-28T13:01:15;6.40;90.90
12819;DHT22;6474;53.474;9.894;2023-02-28T13:04:01;6.40;90.80
12819;DHT22;6474;53.474;9.894;2023-02-28T13:06:58;6.40;90.80
12819;DHT22;6474;53.474;9.894;2023-02-28T13:09:27;6.40;90.80
12819;DHT22;6474;53.474;9.894;2023-02-28T13:11:56;6.50;90.90
12819;DHT22;6474;53.474;9.894;2023-02-28T13:14:28;6.50;90.90
12819;DHT22;6474;53.474;9.894;2023-02-28T13:17:01;6.50;90.80
12819;DHT22;6474;53.474;9.894;2023-02-28T13:19:31;6.50;90.90
12819;DHT22;6474;53.474;9.894;2023-02-28T13:22:00;6.50;90.90
12819;DHT22;6474;53.474;9.894;2023-02-28T13:24:48;6.50;90.80
12819;DHT22;6474;53.474;9.894;2023-02-28T13:27:37;6.50;90.80
12819;DHT22;6474;53.474;9.894;2023-02-28T13:33:22;6.50;90.80
12819;DHT22;6474;53.474;9.894;2023-02-28T13:36:08;6.50;90.80
12819;DHT22;6474;53.474;9.894;2023-02-28T13:38:39;6.50;90.80
12819;DHT22;6474;53.474;9.894;2023-02-28T13:41:42;6.50;90.80
12819;DHT22;6474;53.474;9.894;2023-02-28T13:44:15;6.50;90.80
12819;DHT22;6474;53.474;9.894;2023-02-28T13:47:22;6.50;90.80
12819;DHT22;6474;53.474;9.894;2023-02-28T13:49:53;6.50;90.70
12819;DHT22;6474;53.474;9.894;2023-02-28T13:52:23;6.50;90.70
12819;DHT22;6474;53.474;9.894;2023-02-28T13:55:03;6.50;90.70
12819;DHT22;6474;53.474;9.894;2023-02-28T13:57:48;6.50;90.70
12819;DHT22;6474;53.474;9.894;2023-02-28T14:00:28;6.50;90.70
12819;DHT22;6474;53.474;9.894;2023-02-28T14:03:13;6.60;90.70
12819;DHT22;6474;53.474;9.894;2023-02-28T14:05:44;6.60;90.70
12819;DHT22;6474;53.474;9.894;2023-02-28T14:08:16;6.60;90.60
12819;DHT22;6474;53.474;9.894;2023-02-28T14:10:49;6.60;90.60
12819;DHT22;6474;53.474;9.894;2023-02-28T14:13:40;6.50;90.50
12819;DHT22;6474;53.474;9.894;2023-02-28T14:16:13;6.50;90.60
12819;DHT22;6474;53.474;9.894;2023-02-28T14:18:43;6.50;90.50
12819;DHT22;6474;53.474;9.894;2023-02-28T14:21:21;6.50;90.50
12819;DHT22;6474;53.474;9.894;2023-02-28T14:24:28;6.50;90.50
12819;DHT22;6474;53.474;9.894;2023-02-28T14:27:09;6.50;90.50
12819;DHT22;6474;53.474;9.894;2023-02-28T14:30:01;6.50;90.50
12819;DHT22;6474;53.474;9.894;2023-02-28T14:32:41;6.50;90.50
12819;DHT22;6474;53.474;9.894;2023-02-28T14:35:19;6.50;90.50
12819;DHT22;6474;53.474;9.894;2023-02-28T14:37:49;6.40;90.50
12819;DHT22;6474;53.474;9.894;2023-02-28T14:40:20;6.40;90.50
12819;DHT22;6474;53.474;9.894;2023-02-28T14:42:55;6.40;90.50
12819;DHT22;6474;53.474;9.894;2023-02-28T14:45:29;6.40;90.50
12819;DHT22;6474;53.474;9.894;2023-02-28T14:47:58;6.40;90.40
12819;DHT22;6474;53.474;9.894;2023-02-28T14:50:29;6.40;90.40
12819;DHT22;6474;53.474;9.894;2023-02-28T14:52:59;6.30;90.40
12819;DHT22;6474;53.474;9.894;2023-02-28T14:55:29;6.30;90.30
12819;DHT22;6474;53.474;9.894;2023-02-28T14:57:59;6.30;90.40
12819;DHT22;6474;53.474;9.894;2023-02-28T15:00:30;6.20;90.30
12819;DHT22;6474;53.474;9.894;2023-02-28T15:03:00;6.20;90.30
12819;DHT22;6474;53.474;9.894;2023-02-28T15:05:30;6.20;90.30
12819;DHT22;6474;53.474;9.894;2023-02-28T15:08:09;6.20;90.30
12819;DHT22;6474;53.474;9.894;2023-02-28T15:10:38;6.10;90.20
12819;DHT22;6474;53.474;9.894;2023-02-28T15:13:10;6.10;90.20
12819;DHT22;6474;53.474;9.894;2023-02-28T15:15:43;6.00;90.20
12819;DHT22;6474;53.474;9.894;2023-02-28T15:18:31;6.00;90.30
12819;DHT22;6474;53.474;9.894;2023-02-28T15:21:04;5.90;90.20
12819;DHT22;6474;53.474;9.894;2023-02-28T15:23:37;5.90;90.20
12819;DHT22;6474;53.474;9.894;2023-02-28T15:26:05;5.80;90.20
12819;DHT22;6474;53.474;9.894;2023-02-28T15:28:33;5.80;90.20
12819;DHT22;6474;53.474;9.894;2023-02-28T15:31:03;5.80;90.10
12819;DHT22;6474;53.474;9.894;2023-02-28T15:33:53;5.70;90.10
12819;DHT22;6474;53.474;9.894;2023-02-28T15:36:25;5.60;90.10
12819;DHT22;6474;53.474;9.894;2023-02-28T15:38:56;5.60;90.10
12819;DHT22;6474;53.474;9.894;2023-02-28T15:41:41;5.60;90.00
12819;DHT22;6474;53.474;9.894;2023-02-28T15:44:25;5.50;90.00
12819;DHT22;6474;53.474;9.894;2023-02-28T15:47:01;5.50;90.40
12819;DHT22;6474;53.474;9.894;2023-02-28T15:49:34;5.40;90.00
12819;DHT22;6474;53.474;9.894;2023-02-28T15:52:14;5.40;90.00
12819;DHT22;6474;53.474;9.894;2023-02-28T15:54:45;5.30;89.90
12819;DHT22;6474;53.474;9.894;2023-02-28T15:57:15;5.30;89.90
12819;DHT22;6474;53.474;9.894;2023-02-28T15:59:51;5.20;89.80
12819;DHT22;6474;53.474;9.894;2023-02-28T16:02:21;5.20;89.90
12819;DHT22;6474;53.474;9.894;2023-02-28T16:04:58;5.10;89.70
12819;DHT22;6474;53.474;9.894;2023-02-28T16:07:27;5.10;89.80
12819;DHT22;6474;53.474;9.894;2023-02-28T16:09:57;5.00;89.60
12819;DHT22;6474;53.474;9.894;2023-02-28T16:12:27;5.00;89.50
12819;DHT22;6474;53.474;9.894;2023-02-28T16:14:56;4.90;89.40
12819;DHT22;6474;53.474;9.894;2023-02-28T16:17:26;4.80;89.30
12819;DHT22;6474;53.474;9.894;2023-02-28T16:19:55;4.80;89.40
12819;DHT22;6474;53.474;9.894;2023-02-28T16:22:23;4.70;89.30
12819;DHT22;6474;53.474;9.894;2023-02-28T16:24:51;4.60;89.30
12819;DHT22;6474;53.474;9.894;2023-02-28T16:27:24;4.60;89.30
12819;DHT22;6474;53.474;9.894;2023-02-28T16:29:55;4.50;89.30
12819;DHT22;6474;53.474;9.894;2023-02-28T16:32:23;4.40;89.20
12819;DHT22;6474;53.474;9.894;2023-02-28T16:34:51;4.30;89.10
12819;DHT22;6474;53.474;9.894;2023-02-28T16:37:19;4.20;89.10